sensor_id;sensor_type;location;lat;lon;timestamp;temperature;humidity
56761;DHT22;42633;44.494;11.356;2022-07-29T00:00:33;26.20;90.60
56761;DHT22;42633;44.494;11.356;2022-07-29T00:03:38;26.20;90.50
56761;DHT22;42633;44.494;11.356;2022-07-29T00:06:44;26.10;90.70
56761;DHT22;42633;44.494;11.356;2022-07-29T00:09:48;26.00;90.80
56761;DHT22;42633;44.494;11.356;2022-07-29T00:12:52;26.00;90.90
56761;DHT22;42633;44.494;11.356;2022-07-29T00:15:56;26.00;91.00
56761;DHT22;42633;44.494;11.356;2022-07-29T00:19:00;26.00;90.80
56761;DHT22;42633;44.494;11.356;2022-07-29T00:22:15;25.90;90.90
56761;DHT22;42633;44.494;11.356;2022-07-29T00:25:19;25.90;91.00
56761;DHT22;42633;44.494;11.356;2022-07-29T00:28:24;25.90;91.00
56761;DHT22;42633;44.494;11.356;2022-07-29T00:31:37;25.90;91.10
56761;DHT22;42633;44.494;11.356;2022-07-29T00:34:41;25.90;91.10
56761;DHT22;42633;44.494;11.356;2022-07-29T00:38:13;25.90;91.20
56761;DHT22;42633;44.494;11.356;2022-07-29T00:41:18;25.80;91.30
56761;DHT22;42633;44.494;11.356;2022-07-29T00:44:21;25.80;91.50
56761;DHT22;42633;44.494;11.356;2022-07-29T00:47:26;25.80;91.50
56761;DHT22;42633;44.494;11.356;2022-07-29T00:50:31;25.80;92.00
56761;DHT22;42633;44.494;11.356;2022-07-29T00:53:42;25.80;91.70
56761;DHT22;42633;44.494;11.356;2022-07-29T00:56:47;25.80;91.20
56761;DHT22;42633;44.494;11.356;2022-07-29T00:59:51;25.80;91.00
56761;DHT22;42633;44.494;11.356;2022-07-29T01:02:56;25.70;90.90
56761;DHT22;42633;44.494;11.356;2022-07-29T01:06:00;25.70;91.00
56761;DHT22;42633;44.494;11.356;2022-07-29T01:09:05;25.70;91.10
56761;DHT22;42633;44.494;11.356;2022-07-29T01:12:11;25.70;91.20
56761;DHT22;42633;44.494;11.356;2022-07-29T01:15:16;25.60;91.30
56761;DHT22;42633;44.494;11.356;2022-07-29T01:18:30;25.60;91.40
56761;DHT22;42633;44.494;11.356;2022-07-29T01:21:53;25.60;91.70
56761;DHT22;42633;44.494;11.356;2022-07-29T01:25:30;25.50;91.90
56761;DHT22;42633;44.494;11.356;2022-07-29T01:32:10;25.40;92.30
56761;DHT22;42633;44.494;11.356;2022-07-29T01:35:25;25.30;92.50
56761;DHT22;42633;44.494;11.356;2022-07-29T01:38:30;25.30;92.80
56761;DHT22;42633;44.494;11.356;2022-07-29T01:41:37;25.20;92.80
56761;DHT22;42633;44.494;11.356;2022-07-29T01:44:57;25.20;93.00
56761;DHT22;42633;44.494;11.356;2022-07-29T01:48:09;25.20;93.30
56761;DHT22;42633;44.494;11.356;2022-07-29T01:51:16;25.20;93.70
56761;DHT22;42633;44.494;11.356;2022-07-29T01:54:34;25.10;93.90
56761;DHT22;42633;44.494;11.356;2022-07-29T01:57:42;25.10;93.80
56761;DHT22;42633;44.494;11.356;2022-07-29T02:00:48;25.10;93.70
56761;DHT22;42633;44.494;11.356;2022-07-29T02:03:54;25.10;93.60
56761;DHT22;42633;44.494;11.356;2022-07-29T02:07:02;25.10;93.70
56761;DHT22;42633;44.494;11.356;2022-07-29T02:10:07;25.10;93.80
56761;DHT22;42633;44.494;11.356;2022-07-29T02:13:16;25.00;93.70
56761;DHT22;42633;44.494;11.356;2022-07-29T02:16:22;25.00;93.70
56761;DHT22;42633;44.494;11.356;2022-07-29T02:19:32;24.90;93.90
56761;DHT22;42633;44.494;11.356;2022-07-29T02:22:39;24.90;94.00
56761;DHT22;42633;44.494;11.356;2022-07-29T02:25:43;24.90;94.00
56761;DHT22;42633;44.494;11.356;2022-07-29T02:28:51;24.80;94.10
56761;DHT22;42633;44.494;11.356;2022-07-29T02:31:57;24.80;94.20
56761;DHT22;42633;44.494;11.356;2022-07-29T02:35:07;24.80;94.30
56761;DHT22;42633;44.494;11.356;2022-07-29T02:38:15;24.70;94.30
56761;DHT22;42633;44.494;11.356;2022-07-29T02:41:44;24.80;94.30
56761;DHT22;42633;44.494;11.356;2022-07-29T02:44:50;24.70;94.30
56761;DHT22;42633;44.494;11.356;2022-07-29T02:47:57;24.70;94.30
56761;DHT22;42633;44.494;11.356;2022-07-29T02:51:12;24.70;94.40
56761;DHT22;42633;44.494;11.356;2022-07-29T02:57:42;24.60;94.50
56761;DHT22;42633;44.494;11.356;2022-07-29T03:00:48;24.60;94.30
56761;DHT22;42633;44.494;11.356;2022-07-29T03:03:54;24.60;94.20
56761;DHT22;42633;44.494;11.356;2022-07-29T03:07:00;24.60;94.20
56761;DHT22;42633;44.494;11.356;2022-07-29T03:10:07;24.60;94.20
56761;DHT22;42633;44.494;11.356;2022-07-29T03:13:12;24.60;94.10
56761;DHT22;42633;44.494;11.356;2022-07-29T03:16:19;24.70;94.00
56761;DHT22;42633;44.494;11.356;2022-07-29T03:19:25;24.60;93.90
56761;DHT22;42633;44.494;11.356;2022-07-29T03:22:30;24.60;93.80
56761;DHT22;42633;44.494;11.356;2022-07-29T03:25:34;24.60;93.80
56761;DHT22;42633;44.494;11.356;2022-07-29T03:28:39;24.60;93.80
56761;DHT22;42633;44.494;11.356;2022-07-29T03:31:45;24.60;93.70
56761;DHT22;42633;44.494;11.356;2022-07-29T03:34:49;24.50;93.80
56761;DHT22;42633;44.494;11.356;2022-07-29T03:38:19;24.50;93.80
56761;DHT22;42633;44.494;11.356;2022-07-29T03:41:24;24.50;93.60
56761;DHT22;42633;44.494;11.356;2022-07-29T03:44:29;24.60;93.60
56761;DHT22;42633;44.494;11.356;2022-07-29T03:47:35;24.50;93.60
56761;DHT22;42633;44.494;11.356;2022-07-29T03:50:42;24.50;93.50
56761;DHT22;42633;44.494;11.356;2022-07-29T03:53:46;24.50;93.50
56761;DHT22;42633;44.494;11.356;2022-07-29T03:56:52;24.50;93.50
56761;DHT22;42633;44.494;11.356;2022-07-29T03:59:57;24.50;93.50
56761;DHT22;42633;44.494;11.356;2022-07-29T04:03:02;24.50;93.60
56761;DHT22;42633;44.494;11.356;2022-07-29T04:06:08;24.50;93.70
56761;DHT22;42633;44.494;11.356;2022-07-29T04:09:12;24.50;93.90
56761;DHT22;42633;44.494;11.356;2022-07-29T04:12:16;24.50;94.00
56761;DHT22;42633;44.494;11.356;2022-07-29T04:15:20;24.40;94.10
56761;DHT22;42633;44.494;11.356;2022-07-29T04:18:24;24.50;94.10
56761;DHT22;42633;44.494;11.356;2022-07-29T04:21:29;24.50;94.00
56761;DHT22;42633;44.494;11.356;2022-07-29T04:24:33;24.40;94.00
56761;DHT22;42633;44.494;11.356;2022-07-29T04:27:38;24.40;94.20
56761;DHT22;42633;44.494;11.356;2022-07-29T04:31:02;24.50;94.10
56761;DHT22;42633;44.494;11.356;2022-07-29T04:34:06;24.50;93.90
56761;DHT22;42633;44.494;11.356;2022-07-29T04:37:11;24.50;94.00
56761;DHT22;42633;44.494;11.356;2022-07-29T04:40:15;24.50;94.10
56761;DHT22;42633;44.494;11.356;2022-07-29T04:43:19;24.50;94.10
56761;DHT22;42633;44.494;11.356;2022-07-29T04:46:23;24.40;94.20
56761;DHT22;42633;44.494;11.356;2022-07-29T04:49:28;24.40;94.20
56761;DHT22;42633;44.494;11.356;2022-07-29T04:52:33;24.40;94.20
56761;DHT22;42633;44.494;11.356;2022-07-29T04:55:38;24.50;94.10
56761;DHT22;42633;44.494;11.356;2022-07-29T04:58:43;24.50;94.20
56761;DHT22;42633;44.494;11.356;2022-07-29T05:01:47;24.50;93.90
56761;DHT22;42633;44.494;11.356;2022-07-29T05:04:52;24.50;93.70
56761;DHT22;42633;44.494;11.356;2022-07-29T05:07:56;24.60;93.50
56761;DHT22;42633;44.494;11.356;2022-07-29T05:11:01;24.60;93.30
56761;DHT22;42633;44.494;11.356;2022-07-29T05:14:05;24.70;93.10
56761;DHT22;42633;44.494;11.356;2022-07-29T05:17:10;24.80;92.90
56761;DHT22;42633;44.494;11.356;2022-07-29T05:20:14;25.10;92.50
56761;DHT22;42633;44.494;11.356;2022-07-29T05:23:19;25.80;91.20
56761;DHT22;42633;44.494;11.356;2022-07-29T05:26:23;26.30;90.20
56761;DHT22;42633;44.494;11.356;2022-07-29T05:29:27;26.60;88.90
56761;DHT22;42633;44.494;11.356;2022-07-29T05:32:31;26.90;87.90
56761;DHT22;42633;44.494;11.356;2022-07-29T05:35:36;27.00;87.30
56761;DHT22;42633;44.494;11.356;2022-07-29T05:38:41;27.00;87.10
56761;DHT22;42633;44.494;11.356;2022-07-29T05:41:44;27.10;86.80
56761;DHT22;42633;44.494;11.356;2022-07-29T05:44:48;27.20;86.60
56761;DHT22;42633;44.494;11.356;2022-07-29T05:47:53;27.10;86.60
56761;DHT22;42633;44.494;11.356;2022-07-29T05:50:57;27.10;86.70
56761;DHT22;42633;44.494;11.356;2022-07-29T05:54:01;27.10;86.70
56761;DHT22;42633;44.494;11.356;2022-07-29T05:57:05;27.00;86.50
56761;DHT22;42633;44.494;11.356;2022-07-29T06:00:10;26.90;87.00
56761;DHT22;42633;44.494;11.356;2022-07-29T06:03:17;26.80;87.10
56761;DHT22;42633;44.494;11.356;2022-07-29T06:06:21;26.70;87.40
56761;DHT22;42633;44.494;11.356;2022-07-29T06:09:26;26.70;87.40
56761;DHT22;42633;44.494;11.356;2022-07-29T06:12:30;26.70;87.70
56761;DHT22;42633;44.494;11.356;2022-07-29T06:15:34;26.70;87.00
56761;DHT22;42633;44.494;11.356;2022-07-29T06:18:39;26.50;87.50
56761;DHT22;42633;44.494;11.356;2022-07-29T06:21:44;26.40;88.00
56761;DHT22;42633;44.494;11.356;2022-07-29T06:24:48;26.20;88.50
56761;DHT22;42633;44.494;11.356;2022-07-29T06:27:52;26.20;88.90
56761;DHT22;42633;44.494;11.356;2022-07-29T06:30:56;26.20;89.00
56761;DHT22;42633;44.494;11.356;2022-07-29T06:34:00;26.20;88.80
56761;DHT22;42633;44.494;11.356;2022-07-29T06:37:08;26.10;88.70
56761;DHT22;42633;44.494;11.356;2022-07-29T06:40:12;26.10;88.70
56761;DHT22;42633;44.494;11.356;2022-07-29T06:43:36;26.20;88.70
56761;DHT22;42633;44.494;11.356;2022-07-29T06:46:45;26.20;88.40
56761;DHT22;42633;44.494;11.356;2022-07-29T06:49:52;26.20;88.40
56761;DHT22;42633;44.494;11.356;2022-07-29T06:52:56;26.40;88.10
56761;DHT22;42633;44.494;11.356;2022-07-29T06:56:04;26.30;88.00
56761;DHT22;42633;44.494;11.356;2022-07-29T06:59:09;26.40;87.90
56761;DHT22;42633;44.494;11.356;2022-07-29T07:02:14;26.40;87.80
56761;DHT22;42633;44.494;11.356;2022-07-29T07:05:18;26.50;87.80
56761;DHT22;42633;44.494;11.356;2022-07-29T07:08:22;26.60;87.90
56761;DHT22;42633;44.494;11.356;2022-07-29T07:11:27;26.60;87.90
56761;DHT22;42633;44.494;11.356;2022-07-29T07:14:32;26.70;88.00
56761;DHT22;42633;44.494;11.356;2022-07-29T07:17:36;26.80;87.50
56761;DHT22;42633;44.494;11.356;2022-07-29T07:20:41;26.90;87.20
56761;DHT22;42633;44.494;11.356;2022-07-29T07:23:46;26.90;86.40
56761;DHT22;42633;44.494;11.356;2022-07-29T07:26:51;26.90;86.30
56761;DHT22;42633;44.494;11.356;2022-07-29T07:29:54;26.90;86.30
56761;DHT22;42633;44.494;11.356;2022-07-29T07:32:59;26.80;86.50
56761;DHT22;42633;44.494;11.356;2022-07-29T07:36:04;26.90;86.70
56761;DHT22;42633;44.494;11.356;2022-07-29T07:39:08;27.00;86.70
56761;DHT22;42633;44.494;11.356;2022-07-29T07:42:13;27.10;86.10
56761;DHT22;42633;44.494;11.356;2022-07-29T07:45:17;27.20;85.90
56761;DHT22;42633;44.494;11.356;2022-07-29T07:48:21;27.40;85.80
56761;DHT22;42633;44.494;11.356;2022-07-29T07:51:28;27.50;85.30
56761;DHT22;42633;44.494;11.356;2022-07-29T07:54:32;27.40;85.20
56761;DHT22;42633;44.494;11.356;2022-07-29T07:57:36;27.50;85.10
56761;DHT22;42633;44.494;11.356;2022-07-29T08:00:40;27.70;84.80
56761;DHT22;42633;44.494;11.356;2022-07-29T08:03:44;27.90;84.10
56761;DHT22;42633;44.494;11.356;2022-07-29T08:06:48;28.00;83.50
56761;DHT22;42633;44.494;11.356;2022-07-29T08:09:53;28.10;83.50
56761;DHT22;42633;44.494;11.356;2022-07-29T08:12:57;28.20;83.30
56761;DHT22;42633;44.494;11.356;2022-07-29T08:16:01;28.30;83.00
56761;DHT22;42633;44.494;11.356;2022-07-29T08:19:14;28.50;82.80
56761;DHT22;42633;44.494;11.356;2022-07-29T08:22:19;28.40;82.90
56761;DHT22;42633;44.494;11.356;2022-07-29T08:25:23;28.50;82.70
56761;DHT22;42633;44.494;11.356;2022-07-29T08:28:27;28.60;82.20
56761;DHT22;42633;44.494;11.356;2022-07-29T08:31:30;28.80;82.10
56761;DHT22;42633;44.494;11.356;2022-07-29T08:34:34;28.90;81.60
56761;DHT22;42633;44.494;11.356;2022-07-29T08:37:39;29.00;81.50
56761;DHT22;42633;44.494;11.356;2022-07-29T08:40:43;29.20;81.10
56761;DHT22;42633;44.494;11.356;2022-07-29T08:43:47;29.20;81.10
56761;DHT22;42633;44.494;11.356;2022-07-29T08:46:52;29.40;80.50
56761;DHT22;42633;44.494;11.356;2022-07-29T08:49:56;29.50;80.20
56761;DHT22;42633;44.494;11.356;2022-07-29T08:53:00;29.70;80.10
56761;DHT22;42633;44.494;11.356;2022-07-29T08:56:05;29.90;79.60
56761;DHT22;42633;44.494;11.356;2022-07-29T08:59:09;30.00;79.10
56761;DHT22;42633;44.494;11.356;2022-07-29T09:02:22;29.90;78.80
56761;DHT22;42633;44.494;11.356;2022-07-29T09:05:26;29.90;79.00
56761;DHT22;42633;44.494;11.356;2022-07-29T09:08:32;30.00;78.40
56761;DHT22;42633;44.494;11.356;2022-07-29T09:11:36;30.10;78.10
56761;DHT22;42633;44.494;11.356;2022-07-29T09:14:41;30.20;76.90
56761;DHT22;42633;44.494;11.356;2022-07-29T09:17:47;30.20;76.00
56761;DHT22;42633;44.494;11.356;2022-07-29T09:20:52;30.40;75.90
56761;DHT22;42633;44.494;11.356;2022-07-29T09:24:15;30.60;76.00
56761;DHT22;42633;44.494;11.356;2022-07-29T09:27:23;30.80;75.50
56761;DHT22;42633;44.494;11.356;2022-07-29T09:30:29;30.80;74.90
56761;DHT22;42633;44.494;11.356;2022-07-29T09:33:34;31.00;74.60
56761;DHT22;42633;44.494;11.356;2022-07-29T09:36:48;31.10;74.40
56761;DHT22;42633;44.494;11.356;2022-07-29T09:39:53;31.30;73.40
56761;DHT22;42633;44.494;11.356;2022-07-29T09:42:57;31.40;72.10
56761;DHT22;42633;44.494;11.356;2022-07-29T09:46:13;31.30;71.30
56761;DHT22;42633;44.494;11.356;2022-07-29T09:49:17;31.30;72.10
56761;DHT22;42633;44.494;11.356;2022-07-29T09:52:21;31.20;71.90
56761;DHT22;42633;44.494;11.356;2022-07-29T09:55:25;31.10;72.10
56761;DHT22;42633;44.494;11.356;2022-07-29T09:58:30;31.30;71.30
56761;DHT22;42633;44.494;11.356;2022-07-29T10:01:34;31.50;70.80
56761;DHT22;42633;44.494;11.356;2022-07-29T10:04:41;31.60;70.60
56761;DHT22;42633;44.494;11.356;2022-07-29T10:07:51;31.70;70.40
56761;DHT22;42633;44.494;11.356;2022-07-29T10:11:09;31.90;69.50
56761;DHT22;42633;44.494;11.356;2022-07-29T10:14:14;32.10;69.30
56761;DHT22;42633;44.494;11.356;2022-07-29T10:17:19;32.40;68.50
56761;DHT22;42633;44.494;11.356;2022-07-29T10:20:23;32.40;68.30
56761;DHT22;42633;44.494;11.356;2022-07-29T10:23:31;32.50;68.00
56761;DHT22;42633;44.494;11.356;2022-07-29T10:26:35;32.60;67.10
56761;DHT22;42633;44.494;11.356;2022-07-29T10:29:40;32.60;66.90
56761;DHT22;42633;44.494;11.356;2022-07-29T10:39:53;33.00;66.50
56761;DHT22;42633;44.494;11.356;2022-07-29T10:43:16;33.20;65.90
56761;DHT22;42633;44.494;11.356;2022-07-29T10:46:21;33.20;65.40
56761;DHT22;42633;44.494;11.356;2022-07-29T10:49:26;33.00;65.10
56761;DHT22;42633;44.494;11.356;2022-07-29T10:55:53;33.30;64.60
56761;DHT22;42633;44.494;11.356;2022-07-29T11:05:56;33.40;62.80
56761;DHT22;42633;44.494;11.356;2022-07-29T11:09:17;33.40;63.40
56761;DHT22;42633;44.494;11.356;2022-07-29T11:22:34;34.00;61.90
56761;DHT22;42633;44.494;11.356;2022-07-29T11:25:39;34.00;61.40
56761;DHT22;42633;44.494;11.356;2022-07-29T11:32:13;34.20;60.70
56761;DHT22;42633;44.494;11.356;2022-07-29T11:35:23;34.20;60.50
56761;DHT22;42633;44.494;11.356;2022-07-29T11:38:28;34.20;60.30
56761;DHT22;42633;44.494;11.356;2022-07-29T11:41:32;34.30;60.80
56761;DHT22;42633;44.494;11.356;2022-07-29T11:44:59;34.40;60.00
56761;DHT22;42633;44.494;11.356;2022-07-29T11:48:16;34.60;59.70
56761;DHT22;42633;44.494;11.356;2022-07-29T11:51:20;34.70;59.60
56761;DHT22;42633;44.494;11.356;2022-07-29T11:54:26;34.60;59.00
56761;DHT22;42633;44.494;11.356;2022-07-29T11:57:34;34.80;59.40
56761;DHT22;42633;44.494;11.356;2022-07-29T12:00:40;34.90;59.40
56761;DHT22;42633;44.494;11.356;2022-07-29T12:03:45;34.90;58.80
56761;DHT22;42633;44.494;11.356;2022-07-29T12:06:53;35.00;58.50
56761;DHT22;42633;44.494;11.356;2022-07-29T12:09:58;35.00;58.10
56761;DHT22;42633;44.494;11.356;2022-07-29T12:13:05;34.90;58.60
56761;DHT22;42633;44.494;11.356;2022-07-29T12:16:12;34.70;59.00
56761;DHT22;42633;44.494;11.356;2022-07-29T12:19:16;34.60;58.30
56761;DHT22;42633;44.494;11.356;2022-07-29T12:22:41;34.80;58.50
56761;DHT22;42633;44.494;11.356;2022-07-29T12:25:47;34.90;58.80
56761;DHT22;42633;44.494;11.356;2022-07-29T12:28:51;34.90;57.90
56761;DHT22;42633;44.494;11.356;2022-07-29T12:31:55;35.10;59.00
56761;DHT22;42633;44.494;11.356;2022-07-29T12:35:02;35.30;58.50
56761;DHT22;42633;44.494;11.356;2022-07-29T12:38:06;35.50;58.00
56761;DHT22;42633;44.494;11.356;2022-07-29T12:41:12;35.40;57.60
56761;DHT22;42633;44.494;11.356;2022-07-29T12:44:16;35.30;57.60
56761;DHT22;42633;44.494;11.356;2022-07-29T12:47:21;35.00;58.10
56761;DHT22;42633;44.494;11.356;2022-07-29T12:50:26;34.80;59.00
56761;DHT22;42633;44.494;11.356;2022-07-29T12:53:30;34.50;59.40
56761;DHT22;42633;44.494;11.356;2022-07-29T12:56:34;34.30;59.70
56761;DHT22;42633;44.494;11.356;2022-07-29T12:59:38;34.00;60.10
56761;DHT22;42633;44.494;11.356;2022-07-29T13:02:43;33.90;60.20
56761;DHT22;42633;44.494;11.356;2022-07-29T13:05:47;33.90;60.00
56761;DHT22;42633;44.494;11.356;2022-07-29T13:09:13;33.90;60.30
56761;DHT22;42633;44.494;11.356;2022-07-29T13:12:18;33.90;60.50
56761;DHT22;42633;44.494;11.356;2022-07-29T13:15:21;33.80;60.50
56761;DHT22;42633;44.494;11.356;2022-07-29T13:18:34;33.70;61.00
56761;DHT22;42633;44.494;11.356;2022-07-29T13:21:41;33.90;61.20
56761;DHT22;42633;44.494;11.356;2022-07-29T13:27:57;34.10;60.20
56761;DHT22;42633;44.494;11.356;2022-07-29T13:31:01;34.20;60.20
56761;DHT22;42633;44.494;11.356;2022-07-29T13:34:06;34.20;60.60
56761;DHT22;42633;44.494;11.356;2022-07-29T13:37:10;34.30;60.20
56761;DHT22;42633;44.494;11.356;2022-07-29T13:40:15;34.40;60.30
56761;DHT22;42633;44.494;11.356;2022-07-29T13:43:19;34.50;59.80
56761;DHT22;42633;44.494;11.356;2022-07-29T13:46:23;34.60;59.90
56761;DHT22;42633;44.494;11.356;2022-07-29T13:49:27;34.60;59.80
56761;DHT22;42633;44.494;11.356;2022-07-29T13:52:32;34.70;59.90
56761;DHT22;42633;44.494;11.356;2022-07-29T13:55:37;34.90;59.70
56761;DHT22;42633;44.494;11.356;2022-07-29T13:58:41;34.90;59.50
56761;DHT22;42633;44.494;11.356;2022-07-29T14:01:45;35.00;59.40
56761;DHT22;42633;44.494;11.356;2022-07-29T14:04:49;34.80;59.40
56761;DHT22;42633;44.494;11.356;2022-07-29T14:07:53;34.80;59.90
56761;DHT22;42633;44.494;11.356;2022-07-29T14:10:58;34.80;59.40
56761;DHT22;42633;44.494;11.356;2022-07-29T14:14:02;35.00;59.30
56761;DHT22;42633;44.494;11.356;2022-07-29T14:17:06;34.90;60.90
56761;DHT22;42633;44.494;11.356;2022-07-29T14:20:11;34.70;62.70
56761;DHT22;42633;44.494;11.356;2022-07-29T14:23:15;34.50;62.40
56761;DHT22;42633;44.494;11.356;2022-07-29T14:26:19;34.30;63.00
56761;DHT22;42633;44.494;11.356;2022-07-29T14:29:23;34.20;62.40
56761;DHT22;42633;44.494;11.356;2022-07-29T14:32:26;34.00;64.40
56761;DHT22;42633;44.494;11.356;2022-07-29T14:35:31;33.90;64.50
56761;DHT22;42633;44.494;11.356;2022-07-29T14:38:35;33.80;64.90
56761;DHT22;42633;44.494;11.356;2022-07-29T14:41:41;33.60;65.30
56761;DHT22;42633;44.494;11.356;2022-07-29T14:44:45;33.50;65.60
56761;DHT22;42633;44.494;11.356;2022-07-29T14:47:51;33.50;66.30
56761;DHT22;42633;44.494;11.356;2022-07-29T14:50:55;33.40;66.40
56761;DHT22;42633;44.494;11.356;2022-07-29T14:53:59;33.40;66.60
56761;DHT22;42633;44.494;11.356;2022-07-29T14:57:04;33.30;67.00
56761;DHT22;42633;44.494;11.356;2022-07-29T15:00:08;33.20;67.20
56761;DHT22;42633;44.494;11.356;2022-07-29T15:03:13;33.10;66.90
56761;DHT22;42633;44.494;11.356;2022-07-29T15:06:17;33.10;66.70
56761;DHT22;42633;44.494;11.356;2022-07-29T15:09:21;33.00;67.40
56761;DHT22;42633;44.494;11.356;2022-07-29T15:12:25;32.90;67.40
56761;DHT22;42633;44.494;11.356;2022-07-29T15:15:30;32.90;67.10
56761;DHT22;42633;44.494;11.356;2022-07-29T15:18:34;32.90;67.10
56761;DHT22;42633;44.494;11.356;2022-07-29T15:21:38;32.90;67.70
56761;DHT22;42633;44.494;11.356;2022-07-29T15:24:43;33.00;69.80
56761;DHT22;42633;44.494;11.356;2022-07-29T15:27:48;33.00;73.60
56761;DHT22;42633;44.494;11.356;2022-07-29T15:30:55;32.90;74.40
56761;DHT22;42633;44.494;11.356;2022-07-29T15:33:59;32.80;75.10
56761;DHT22;42633;44.494;11.356;2022-07-29T15:37:04;32.70;75.70
56761;DHT22;42633;44.494;11.356;2022-07-29T15:40:09;32.60;74.00
56761;DHT22;42633;44.494;11.356;2022-07-29T15:43:13;32.50;74.00
56761;DHT22;42633;44.494;11.356;2022-07-29T15:46:18;32.50;73.70
56761;DHT22;42633;44.494;11.356;2022-07-29T15:49:41;32.50;73.60
56761;DHT22;42633;44.494;11.356;2022-07-29T15:52:46;32.50;72.10
56761;DHT22;42633;44.494;11.356;2022-07-29T15:55:50;32.40;71.60
56761;DHT22;42633;44.494;11.356;2022-07-29T15:58:54;32.40;71.10
56761;DHT22;42633;44.494;11.356;2022-07-29T16:01:59;32.40;71.50
56761;DHT22;42633;44.494;11.356;2022-07-29T16:05:03;32.50;71.10
56761;DHT22;42633;44.494;11.356;2022-07-29T16:08:08;32.60;71.10
56761;DHT22;42633;44.494;11.356;2022-07-29T16:11:12;32.60;71.30
56761;DHT22;42633;44.494;11.356;2022-07-29T16:14:17;32.70;71.90
56761;DHT22;42633;44.494;11.356;2022-07-29T16:17:21;32.70;73.20
56761;DHT22;42633;44.494;11.356;2022-07-29T16:20:25;32.50;73.40
56761;DHT22;42633;44.494;11.356;2022-07-29T16:23:29;32.20;73.70
56761;DHT22;42633;44.494;11.356;2022-07-29T16:26:33;32.10;74.80
56761;DHT22;42633;44.494;11.356;2022-07-29T16:29:37;32.00;74.50
56761;DHT22;42633;44.494;11.356;2022-07-29T16:32:42;31.70;74.30
56761;DHT22;42633;44.494;11.356;2022-07-29T16:35:47;31.40;74.80
56761;DHT22;42633;44.494;11.356;2022-07-29T16:38:51;31.20;75.90
56761;DHT22;42633;44.494;11.356;2022-07-29T16:41:54;31.00;77.00
56761;DHT22;42633;44.494;11.356;2022-07-29T16:44:59;30.80;77.40
56761;DHT22;42633;44.494;11.356;2022-07-29T16:48:03;30.30;79.00
56761;DHT22;42633;44.494;11.356;2022-07-29T16:51:07;30.10;79.50
56761;DHT22;42633;44.494;11.356;2022-07-29T16:54:12;30.10;79.80
56761;DHT22;42633;44.494;11.356;2022-07-29T16:57:16;30.20;80.00
56761;DHT22;42633;44.494;11.356;2022-07-29T17:00:21;30.30;79.90
56761;DHT22;42633;44.494;11.356;2022-07-29T17:03:25;30.00;80.20
56761;DHT22;42633;44.494;11.356;2022-07-29T17:06:29;29.90;80.60
56761;DHT22;42633;44.494;11.356;2022-07-29T17:09:34;30.00;80.70
56761;DHT22;42633;44.494;11.356;2022-07-29T17:12:40;29.90;80.80
56761;DHT22;42633;44.494;11.356;2022-07-29T17:15:44;29.90;81.00
56761;DHT22;42633;44.494;11.356;2022-07-29T17:18:48;29.90;80.80
56761;DHT22;42633;44.494;11.356;2022-07-29T17:21:52;30.00;80.80
56761;DHT22;42633;44.494;11.356;2022-07-29T17:24:56;30.30;80.00
56761;DHT22;42633;44.494;11.356;2022-07-29T17:28:00;30.40;79.30
56761;DHT22;42633;44.494;11.356;2022-07-29T17:31:05;30.60;79.20
56761;DHT22;42633;44.494;11.356;2022-07-29T17:34:12;30.70;78.90
56761;DHT22;42633;44.494;11.356;2022-07-29T17:37:16;30.70;78.80
56761;DHT22;42633;44.494;11.356;2022-07-29T17:40:21;30.70;78.80
56761;DHT22;42633;44.494;11.356;2022-07-29T17:43:31;30.70;78.90
56761;DHT22;42633;44.494;11.356;2022-07-29T17:46:54;30.70;78.60
56761;DHT22;42633;44.494;11.356;2022-07-29T17:49:59;30.60;78.80
56761;DHT22;42633;44.494;11.356;2022-07-29T17:53:03;30.40;79.00
56761;DHT22;42633;44.494;11.356;2022-07-29T17:56:07;30.40;79.00
56761;DHT22;42633;44.494;11.356;2022-07-29T17:59:11;30.30;78.90
56761;DHT22;42633;44.494;11.356;2022-07-29T18:02:17;30.10;79.00
56761;DHT22;42633;44.494;11.356;2022-07-29T18:05:21;30.00;79.40
56761;DHT22;42633;44.494;11.356;2022-07-29T18:08:25;29.90;79.30
56761;DHT22;42633;44.494;11.356;2022-07-29T18:11:30;29.80;79.30
56761;DHT22;42633;44.494;11.356;2022-07-29T18:14:35;29.70;79.60
56761;DHT22;42633;44.494;11.356;2022-07-29T18:17:39;29.60;79.60
56761;DHT22;42633;44.494;11.356;2022-07-29T18:20:44;29.50;79.50
56761;DHT22;42633;44.494;11.356;2022-07-29T18:23:48;29.50;80.00
56761;DHT22;42633;44.494;11.356;2022-07-29T18:26:53;29.40;80.00
56761;DHT22;42633;44.494;11.356;2022-07-29T18:29:57;29.20;80.00
56761;DHT22;42633;44.494;11.356;2022-07-29T18:33:03;29.10;80.30
56761;DHT22;42633;44.494;11.356;2022-07-29T18:36:08;29.00;80.70
56761;DHT22;42633;44.494;11.356;2022-07-29T18:39:12;28.90;80.90
56761;DHT22;42633;44.494;11.356;2022-07-29T18:42:17;28.90;81.20
56761;DHT22;42633;44.494;11.356;2022-07-29T18:45:21;28.90;81.40
56761;DHT22;42633;44.494;11.356;2022-07-29T18:48:25;29.00;81.20
56761;DHT22;42633;44.494;11.356;2022-07-29T18:51:29;29.00;81.20
56761;DHT22;42633;44.494;11.356;2022-07-29T18:54:33;29.10;81.20
56761;DHT22;42633;44.494;11.356;2022-07-29T18:57:37;29.10;81.20
56761;DHT22;42633;44.494;11.356;2022-07-29T19:00:41;29.10;81.20
56761;DHT22;42633;44.494;11.356;2022-07-29T19:03:45;29.20;81.30
56761;DHT22;42633;44.494;11.356;2022-07-29T19:06:49;29.10;81.50
56761;DHT22;42633;44.494;11.356;2022-07-29T19:09:55;29.10;82.60
56761;DHT22;42633;44.494;11.356;2022-07-29T19:13:01;29.10;83.00
56761;DHT22;42633;44.494;11.356;2022-07-29T19:16:05;29.00;83.20
56761;DHT22;42633;44.494;11.356;2022-07-29T19:19:09;28.90;83.60
56761;DHT22;42633;44.494;11.356;2022-07-29T19:22:13;28.80;84.20
56761;DHT22;42633;44.494;11.356;2022-07-29T19:25:18;28.60;84.30
56761;DHT22;42633;44.494;11.356;2022-07-29T19:28:22;28.40;83.90
56761;DHT22;42633;44.494;11.356;2022-07-29T19:31:27;28.40;83.50
56761;DHT22;42633;44.494;11.356;2022-07-29T19:34:31;28.40;82.60
56761;DHT22;42633;44.494;11.356;2022-07-29T19:37:36;28.40;83.40
56761;DHT22;42633;44.494;11.356;2022-07-29T19:40:40;28.30;87.30
56761;DHT22;42633;44.494;11.356;2022-07-29T19:43:45;28.00;91.20
56761;DHT22;42633;44.494;11.356;2022-07-29T19:46:49;27.40;90.90
56761;DHT22;42633;44.494;11.356;2022-07-29T19:49:54;27.10;92.10
56761;DHT22;42633;44.494;11.356;2022-07-29T19:52:59;27.10;92.20
56761;DHT22;42633;44.494;11.356;2022-07-29T19:56:03;27.20;92.30